Terminal Aerodrome Forecast
Issued by NWS

Home | Current Version | Previous Version | Text Only | Print | Product List | Glossary On
Versions: 1 2 3 4 5 6 7 8 9 10 11 12 13 14 15 16 17 18 19 20 21 22
000
FTUS45 KVEF 210500
TAFVGT
TAF
KVGT 210526Z 2106/2206 33008KT P6SM SCT120
     FM210800 VRB06KT P6SM SCT120
     FM212000 17010KT P6SM SCT090 SCT120 PROB30 2121/2203 P6SM -TSRA
      BKN090CB
     FM220400 33008KT P6SM SCT120=

USA.gov is the U.S. government's official web portal to all federal, state and local government web resources and services.